createdAt,value
2022-09-28T00:02:22.024Z,8.40
2022-09-28T00:04:52.118Z,8.40
2022-09-28T00:07:22.248Z,8.50
2022-09-28T00:09:52.367Z,8.40
2022-09-28T00:12:25.247Z,8.50
2022-09-28T00:14:55.829Z,8.50
2022-09-28T00:17:26.725Z,8.50
2022-09-28T00:19:56.905Z,8.50
2022-09-28T00:22:27.039Z,8.50
2022-09-28T00:24:57.208Z,8.40
2022-09-28T00:27:29.948Z,8.50
2022-09-28T00:30:00.847Z,8.50
2022-09-28T00:32:30.895Z,8.50
2022-09-28T00:35:01.030Z,8.50
2022-09-28T00:37:31.151Z,8.60
2022-09-28T00:40:02.143Z,8.60
2022-09-28T00:42:35.235Z,8.60
2022-09-28T00:45:05.389Z,8.60
2022-09-28T00:47:45.596Z,8.60
2022-09-28T00:50:26.049Z,8.60
2022-09-28T00:53:03.507Z,8.60
2022-09-28T00:55:40.869Z,8.60
2022-09-28T00:58:19.575Z,8.70
2022-09-28T01:00:49.721Z,8.70
2022-09-28T01:03:20.446Z,8.70
2022-09-28T01:05:51.644Z,8.70
2022-09-28T01:08:25.047Z,8.70
2022-09-28T01:10:56.196Z,8.70
2022-09-28T01:13:29.964Z,8.70
2022-09-28T01:16:23.553Z,8.70
2022-09-28T01:19:04.530Z,8.70
2022-09-28T01:21:48.320Z,8.70
2022-09-28T01:24:39.030Z,8.80
2022-09-28T01:27:16.727Z,8.80
2022-09-28T01:29:58.740Z,8.80
2022-09-28T01:32:43.967Z,8.90
2022-09-28T01:35:20.470Z,8.90
2022-09-28T01:37:55.837Z,8.90
2022-09-28T01:40:29.683Z,8.90
2022-09-28T01:43:08.642Z,8.90
2022-09-28T01:45:46.616Z,8.90
2022-09-28T01:48:22.678Z,8.90
2022-09-28T01:50:56.609Z,9.00
2022-09-28T01:53:35.117Z,9.00
2022-09-28T01:56:11.406Z,9.00
2022-09-28T01:58:50.243Z,9.00
2022-09-28T02:01:29.040Z,9.00
2022-09-28T02:04:07.343Z,9.00
2022-09-28T02:06:41.772Z,9.00
2022-09-28T02:09:16.014Z,9.00
2022-09-28T02:11:53.576Z,9.00
2022-09-28T02:14:28.341Z,9.00
2022-09-28T02:17:00.292Z,9.00
2022-09-28T02:19:33.514Z,9.00
2022-09-28T02:22:12.281Z,9.00
2022-09-28T02:24:48.272Z,9.00
2022-09-28T02:27:30.089Z,9.00
2022-09-28T02:30:03.019Z,9.00
2022-09-28T02:32:40.331Z,8.90
2022-09-28T02:35:14.852Z,8.90
2022-09-28T02:37:45.489Z,8.90
2022-09-28T02:40:17.727Z,8.90
2022-09-28T02:43:02.172Z,8.90
2022-09-28T02:45:53.064Z,8.90
2022-09-28T02:49:00.156Z,8.80
2022-09-28T02:51:43.933Z,8.90
2022-09-28T02:54:37.159Z,8.80
2022-09-28T02:57:21.718Z,8.80
2022-09-28T03:00:00.044Z,8.80
2022-09-28T03:02:40.082Z,8.80
2022-09-28T03:05:18.951Z,8.80
2022-09-28T03:07:58.867Z,8.80
2022-09-28T03:10:36.542Z,8.70
2022-09-28T03:13:08.820Z,8.70
2022-09-28T03:15:41.431Z,8.70
2022-09-28T03:18:15.366Z,8.80
2022-09-28T03:20:45.872Z,8.80
2022-09-28T03:23:31.225Z,8.80
2022-09-28T03:26:01.643Z,8.80
2022-09-28T03:28:31.887Z,8.80
2022-09-28T03:31:02.244Z,8.80
2022-09-28T03:33:35.006Z,8.80
2022-09-28T03:36:05.452Z,8.80
2022-09-28T03:38:35.624Z,8.80
2022-09-28T03:41:05.864Z,8.80
2022-09-28T03:43:35.955Z,8.70
2022-09-28T03:46:06.272Z,8.70
2022-09-28T03:48:39.892Z,8.70
2022-09-28T03:51:13.049Z,8.60
2022-09-28T03:53:44.074Z,8.70
2022-09-28T03:56:17.997Z,8.70
2022-09-28T03:58:48.416Z,8.70
2022-09-28T04:01:19.129Z,8.60
2022-09-28T04:03:57.401Z,8.60
2022-09-28T04:06:28.312Z,8.60
2022-09-28T04:08:58.788Z,8.60
2022-09-28T04:11:38.509Z,8.60
2022-09-28T04:14:19.104Z,8.60
2022-09-28T04:16:49.346Z,8.60
2022-09-28T04:19:22.330Z,8.60
2022-09-28T04:21:53.051Z,8.50
2022-09-28T04:24:23.238Z,8.50
2022-09-28T04:27:13.425Z,8.40
2022-09-28T04:29:44.104Z,8.40
2022-09-28T04:32:14.843Z,8.30
2022-09-28T04:34:47.588Z,8.30
2022-09-28T04:37:17.893Z,8.20
2022-09-28T04:39:48.981Z,8.20
2022-09-28T04:42:19.441Z,8.10
2022-09-28T04:44:49.782Z,8.10
2022-09-28T04:47:20.108Z,8.10
2022-09-28T04:49:53.087Z,8.10
2022-09-28T04:52:23.541Z,8.00
2022-09-28T04:54:53.937Z,8.00
2022-09-28T04:57:24.280Z,8.00
2022-09-28T04:59:54.647Z,8.00
2022-09-28T05:02:25.126Z,8.00
2022-09-28T05:04:59.087Z,8.00
2022-09-28T05:07:29.720Z,7.90
2022-09-28T05:10:01.689Z,7.90
2022-09-28T05:12:32.041Z,8.00
2022-09-28T05:15:02.357Z,7.90
2022-09-28T05:17:32.706Z,7.90
2022-09-28T05:20:05.773Z,7.90
2022-09-28T05:22:36.610Z,7.90
2022-09-28T05:25:07.585Z,8.00
2022-09-28T05:27:37.840Z,8.00
2022-09-28T05:30:11.062Z,8.00
2022-09-28T05:32:44.332Z,8.00
2022-09-28T05:35:17.457Z,8.00
2022-09-28T05:37:47.633Z,8.00
2022-09-28T05:40:19.059Z,8.00
2022-09-28T05:42:49.470Z,8.00
2022-09-28T05:45:20.049Z,8.00
2022-09-28T05:47:50.538Z,8.10
2022-09-28T05:50:23.341Z,8.10
2022-09-28T05:53:06.118Z,8.10
2022-09-28T05:55:36.678Z,8.10
2022-09-28T05:58:09.002Z,8.20
2022-09-28T06:00:40.013Z,8.10
2022-09-28T06:03:14.208Z,8.10
2022-09-28T06:05:47.597Z,8.20
2022-09-28T06:08:17.973Z,8.20
2022-09-28T06:10:48.613Z,8.20
2022-09-28T06:13:18.885Z,8.30
2022-09-28T06:15:49.280Z,8.30
2022-09-28T06:18:19.523Z,8.40
2022-09-28T06:20:52.472Z,8.50
2022-09-28T06:23:22.707Z,8.50
2022-09-28T06:25:52.900Z,8.60
2022-09-28T06:28:23.204Z,8.60
2022-09-28T06:30:54.241Z,8.50
2022-09-28T06:33:26.916Z,8.70
2022-09-28T06:36:02.011Z,8.70
2022-09-28T06:38:32.379Z,8.90
2022-09-28T06:41:02.853Z,9.00
2022-09-28T06:43:34.610Z,8.90
2022-09-28T06:46:05.708Z,8.90
2022-09-28T06:48:36.619Z,9.00
2022-09-28T06:51:10.080Z,9.20
2022-09-28T06:53:40.402Z,9.30
2022-09-28T06:56:13.242Z,9.20
2022-09-28T06:58:43.701Z,9.10
2022-09-28T07:01:14.064Z,9.30
2022-09-28T07:03:44.394Z,9.40
2022-09-28T07:06:18.524Z,9.60
2022-09-28T07:08:58.934Z,9.80
2022-09-28T07:11:42.249Z,9.90
2022-09-28T07:14:23.194Z,10.00
2022-09-28T07:17:13.191Z,10.20
2022-09-28T07:19:44.661Z,10.30
2022-09-28T07:22:19.287Z,10.40
2022-09-28T07:24:51.424Z,10.30
2022-09-28T07:27:25.494Z,10.40
2022-09-28T07:29:59.006Z,10.60
2022-09-28T07:32:32.393Z,10.60
2022-09-28T07:35:05.126Z,10.60
2022-09-28T07:37:38.525Z,10.50
2022-09-28T07:40:24.496Z,10.70
2022-09-28T07:42:54.950Z,10.90
2022-09-28T07:45:26.188Z,10.80
2022-09-28T07:47:58.749Z,10.80
2022-09-28T07:50:28.941Z,10.90
2022-09-28T07:53:01.970Z,10.80
2022-09-28T07:55:33.304Z,10.80
2022-09-28T07:58:03.789Z,10.50
2022-09-28T08:00:34.788Z,10.60
2022-09-28T08:03:06.320Z,10.70
2022-09-28T08:05:36.729Z,10.70
2022-09-28T08:08:09.765Z,10.80
2022-09-28T08:10:44.448Z,10.70
2022-09-28T08:13:17.007Z,10.70
2022-09-28T08:15:48.624Z,10.80
2022-09-28T08:18:18.898Z,10.80
2022-09-28T08:21:01.887Z,10.70
2022-09-28T08:23:37.751Z,10.70
2022-09-28T08:26:13.308Z,10.60
2022-09-28T08:28:47.904Z,10.90
2022-09-28T08:31:18.301Z,11.20
2022-09-28T08:33:53.833Z,11.20
2022-09-28T08:36:24.278Z,11.30
2022-09-28T08:38:57.069Z,11.30
2022-09-28T08:41:39.326Z,11.30
2022-09-28T08:44:24.186Z,11.00
2022-09-28T08:46:57.192Z,11.00
2022-09-28T08:49:33.517Z,10.90
2022-09-28T08:52:07.815Z,10.90
2022-09-28T08:54:49.169Z,10.80
2022-09-28T08:57:24.142Z,11.00
2022-09-28T08:59:58.531Z,10.90
2022-09-28T09:02:34.169Z,10.90
2022-09-28T09:05:11.349Z,10.90
2022-09-28T09:08:08.628Z,10.90
2022-09-28T09:10:54.301Z,10.90
2022-09-28T09:13:48.292Z,11.00
2022-09-28T09:16:33.822Z,10.90
2022-09-28T09:19:18.554Z,10.90
2022-09-28T09:22:00.596Z,10.90
2022-09-28T09:24:39.239Z,10.80
2022-09-28T09:27:43.075Z,10.80
2022-09-28T09:30:20.188Z,10.90
2022-09-28T09:33:25.969Z,10.90
2022-09-28T09:36:10.357Z,10.80
2022-09-28T09:38:55.458Z,10.80
2022-09-28T09:41:36.133Z,10.80
2022-09-28T09:44:36.486Z,10.90
2022-09-28T09:47:10.285Z,10.90
2022-09-28T09:49:47.411Z,10.90
2022-09-28T09:52:25.806Z,11.10
2022-09-28T09:55:01.222Z,11.10
2022-09-28T09:57:39.740Z,11.10
2022-09-28T10:00:19.022Z,11.10
2022-09-28T10:02:52.080Z,11.10
2022-09-28T10:05:27.974Z,11.20
2022-09-28T10:08:04.708Z,11.10
2022-09-28T10:10:39.693Z,11.30
2022-09-28T10:13:11.724Z,11.40
2022-09-28T10:15:45.617Z,11.70
2022-09-28T10:18:18.317Z,11.80
2022-09-28T10:20:49.102Z,11.50
2022-09-28T10:23:25.848Z,11.40
2022-09-28T10:26:02.694Z,11.50
2022-09-28T10:28:42.644Z,11.50
2022-09-28T10:31:41.331Z,11.50
2022-09-28T10:34:17.407Z,11.50
2022-09-28T10:36:56.142Z,11.60
2022-09-28T10:39:33.992Z,11.50
2022-09-28T10:42:07.563Z,11.50
2022-09-28T10:44:51.885Z,11.50
2022-09-28T10:47:28.284Z,11.50
2022-09-28T10:49:59.852Z,11.70
2022-09-28T10:52:37.206Z,11.60
2022-09-28T10:55:30.768Z,11.60
2022-09-28T10:58:01.878Z,11.50
2022-09-28T11:00:38.424Z,11.50
2022-09-28T11:03:23.675Z,11.50
2022-09-28T11:05:58.960Z,11.60
2022-09-28T11:08:33.475Z,11.50
2022-09-28T11:11:11.199Z,11.50
2022-09-28T11:13:44.559Z,11.50
2022-09-28T11:16:33.132Z,11.50
2022-09-28T11:19:09.180Z,11.40
2022-09-28T11:21:46.939Z,11.40
2022-09-28T11:24:27.327Z,11.40
2022-09-28T11:27:00.363Z,11.40
2022-09-28T11:29:41.897Z,11.40
2022-09-28T11:32:15.885Z,11.40
2022-09-28T11:34:59.458Z,11.30
2022-09-28T11:37:47.525Z,11.20
2022-09-28T11:40:31.863Z,11.20
2022-09-28T11:43:16.691Z,11.20
2022-09-28T11:45:53.986Z,11.20
2022-09-28T11:48:30.662Z,11.10
2022-09-28T11:51:09.023Z,11.10
2022-09-28T11:53:43.217Z,11.00
2022-09-28T11:56:31.452Z,11.00
2022-09-28T11:59:08.780Z,11.00
2022-09-28T12:01:45.767Z,10.90
2022-09-28T12:04:21.711Z,10.90
2022-09-28T12:07:00.934Z,10.80
2022-09-28T12:09:41.361Z,10.80
2022-09-28T12:12:24.755Z,10.80
2022-09-28T12:14:59.493Z,10.80
2022-09-28T12:17:37.560Z,10.80
2022-09-28T12:20:20.155Z,10.80
2022-09-28T12:23:08.720Z,10.80
2022-09-28T12:25:48.402Z,10.90
2022-09-28T12:28:29.826Z,10.90
2022-09-28T12:31:03.391Z,11.00
2022-09-28T12:33:33.812Z,11.00
2022-09-28T12:36:16.639Z,11.10
2022-09-28T12:39:19.013Z,11.10
2022-09-28T12:42:12.216Z,11.20
2022-09-28T12:45:00.273Z,11.20
2022-09-28T12:48:15.863Z,11.10
2022-09-28T12:51:00.962Z,11.10
2022-09-28T12:54:03.879Z,11.10
2022-09-28T12:56:45.250Z,11.10
2022-09-28T12:59:25.513Z,11.10
2022-09-28T13:02:28.758Z,11.10
2022-09-28T13:05:41.440Z,11.10
2022-09-28T13:08:16.406Z,11.10
2022-09-28T13:11:06.957Z,11.10
2022-09-28T13:13:47.902Z,11.10
2022-09-28T13:16:26.427Z,11.10
2022-09-28T13:19:06.467Z,11.20
2022-09-28T13:21:46.777Z,11.20
2022-09-28T13:24:34.056Z,11.20
2022-09-28T13:27:16.558Z,11.20
2022-09-28T13:29:49.399Z,11.10
2022-09-28T13:32:21.551Z,11.20
2022-09-28T13:34:54.903Z,11.20
2022-09-28T13:37:28.313Z,11.20
2022-09-28T13:39:59.634Z,11.20
2022-09-28T13:43:08.069Z,11.20
2022-09-28T13:45:58.897Z,11.20
2022-09-28T13:48:48.753Z,11.20
2022-09-28T13:51:36.713Z,11.20
2022-09-28T13:54:25.440Z,11.30
2022-09-28T13:57:04.827Z,11.20
2022-09-28T13:59:53.169Z,11.30
2022-09-28T14:02:35.123Z,11.30
2022-09-28T14:05:08.464Z,11.20
2022-09-28T14:08:11.633Z,11.30
2022-09-28T14:10:53.027Z,11.30
2022-09-28T14:14:02.065Z,11.10
2022-09-28T14:16:36.543Z,11.10
2022-09-28T14:19:12.058Z,11.20
2022-09-28T14:22:10.200Z,11.20
2022-09-28T14:24:57.831Z,11.20
2022-09-28T14:28:06.875Z,11.20
2022-09-28T14:30:51.629Z,11.20
2022-09-28T14:33:32.944Z,11.20
2022-09-28T14:36:05.122Z,11.20
2022-09-28T14:38:52.703Z,11.10
2022-09-28T14:41:34.765Z,11.10
2022-09-28T14:44:11.213Z,11.10
2022-09-28T14:46:46.528Z,11.10
2022-09-28T14:49:52.987Z,11.20
2022-09-28T14:52:46.701Z,11.10
2022-09-28T14:55:20.471Z,11.10
2022-09-28T14:57:58.786Z,11.00
2022-09-28T15:00:32.273Z,11.00
2022-09-28T15:03:12.159Z,11.00
2022-09-28T15:05:48.283Z,11.10
2022-09-28T15:08:22.861Z,11.10
2022-09-28T15:10:54.532Z,11.10
2022-09-28T15:13:29.258Z,11.00
2022-09-28T15:16:03.875Z,11.00
2022-09-28T15:19:10.771Z,10.90
2022-09-28T15:21:47.915Z,10.90
2022-09-28T15:24:33.727Z,11.00
2022-09-28T15:27:06.915Z,10.90
2022-09-28T15:29:37.255Z,10.90
2022-09-28T15:32:07.657Z,10.80
2022-09-28T15:34:52.186Z,10.90
2022-09-28T15:37:28.657Z,10.80
2022-09-28T15:40:01.511Z,10.90
2022-09-28T15:42:38.856Z,10.80
2022-09-28T15:45:31.200Z,10.80
2022-09-28T15:48:23.303Z,10.90
2022-09-28T15:51:06.381Z,10.90
2022-09-28T15:53:43.927Z,10.90
2022-09-28T15:56:14.652Z,10.90
2022-09-28T15:58:45.106Z,10.90
2022-09-28T16:01:36.637Z,10.90
2022-09-28T16:04:38.734Z,10.80
2022-09-28T16:07:32.292Z,10.80
2022-09-28T16:10:33.645Z,10.70
2022-09-28T16:13:24.129Z,10.80
2022-09-28T16:16:00.238Z,10.80
2022-09-28T16:18:33.942Z,10.70
2022-09-28T16:21:48.828Z,10.70
2022-09-28T16:24:25.782Z,10.70
2022-09-28T16:27:08.752Z,10.60
2022-09-28T16:29:42.146Z,10.60
2022-09-28T16:32:41.963Z,10.60
2022-09-28T16:35:25.588Z,10.50
2022-09-28T16:38:14.586Z,10.50
2022-09-28T16:40:49.560Z,10.50
2022-09-28T16:43:28.935Z,10.40
2022-09-28T16:46:00.709Z,10.40
2022-09-28T16:48:32.521Z,10.40
2022-09-28T16:51:03.499Z,10.40
2022-09-28T16:53:46.275Z,10.40
2022-09-28T16:56:17.071Z,10.30
2022-09-28T16:58:50.854Z,10.30
2022-09-28T17:01:21.418Z,10.20
2022-09-28T17:03:52.153Z,10.20
2022-09-28T17:06:25.620Z,10.20
2022-09-28T17:08:58.949Z,10.20
2022-09-28T17:11:29.335Z,10.20
2022-09-28T17:14:03.552Z,10.20
2022-09-28T17:17:07.367Z,10.20
2022-09-28T17:19:29.985Z,10.20
2022-09-28T17:22:00.476Z,10.20
2022-09-28T17:24:30.871Z,10.20
2022-09-28T17:27:03.479Z,10.20
2022-09-28T17:29:36.891Z,10.20
2022-09-28T17:32:15.197Z,10.20
2022-09-28T17:34:51.558Z,10.20
2022-09-28T17:37:26.611Z,10.20
2022-09-28T17:39:56.996Z,10.20
2022-09-28T17:42:27.388Z,10.20
2022-09-28T17:45:00.348Z,10.10
2022-09-28T17:47:34.148Z,10.10
2022-09-28T17:50:04.791Z,10.10
2022-09-28T17:52:34.894Z,10.20
2022-09-28T17:55:05.225Z,10.20
2022-09-28T17:57:36.076Z,10.10
2022-09-28T18:00:11.034Z,10.10
2022-09-28T18:02:41.532Z,10.20
2022-09-28T18:05:14.845Z,10.20
2022-09-28T18:07:47.807Z,10.20
2022-09-28T18:10:21.487Z,10.10
2022-09-28T18:12:52.749Z,10.10
2022-09-28T18:15:25.527Z,10.00
2022-09-28T18:17:55.691Z,10.00
2022-09-28T18:20:25.959Z,10.00
2022-09-28T18:22:58.725Z,10.00
2022-09-28T18:25:29.855Z,10.00
2022-09-28T18:28:01.032Z,10.10
2022-09-28T18:30:33.960Z,10.10
2022-09-28T18:33:04.083Z,10.10
2022-09-28T18:35:34.558Z,10.00
2022-09-28T18:38:06.350Z,10.00
2022-09-28T18:40:37.893Z,10.00
2022-09-28T18:43:08.044Z,10.00
2022-09-28T18:45:40.851Z,10.00
2022-09-28T18:48:11.115Z,9.90
2022-09-28T18:50:41.274Z,10.00
2022-09-28T18:53:14.816Z,10.00
2022-09-28T18:55:46.277Z,10.00
2022-09-28T18:58:16.918Z,10.00
2022-09-28T19:00:49.672Z,10.00
2022-09-28T19:03:20.235Z,10.00
2022-09-28T19:05:50.459Z,10.00
2022-09-28T19:08:24.254Z,10.00
2022-09-28T19:11:07.114Z,9.90
2022-09-28T19:13:37.605Z,9.90
2022-09-28T19:16:16.097Z,9.80
2022-09-28T19:18:47.134Z,9.90
2022-09-28T19:21:19.091Z,9.80
2022-09-28T19:23:50.237Z,9.80
2022-09-28T19:26:23.758Z,9.80
2022-09-28T19:28:54.383Z,9.70
2022-09-28T19:31:27.816Z,9.70
2022-09-28T19:33:58.014Z,9.60
2022-09-28T19:36:31.008Z,9.60
2022-09-28T19:39:04.489Z,9.50
2022-09-28T19:41:49.629Z,9.50
2022-09-28T19:44:27.759Z,9.50
2022-09-28T19:47:06.834Z,9.40
2022-09-28T19:49:39.560Z,9.40
2022-09-28T19:52:16.190Z,9.40
2022-09-28T19:54:54.550Z,9.40
2022-09-28T19:57:25.132Z,9.40
2022-09-28T20:00:00.801Z,9.40
2022-09-28T20:02:36.597Z,9.30
2022-09-28T20:05:07.720Z,9.30
2022-09-28T20:07:39.422Z,9.30
2022-09-28T20:10:12.110Z,9.30
2022-09-28T20:12:42.523Z,9.30
2022-09-28T20:15:13.786Z,9.20
2022-09-28T20:17:46.526Z,9.20
2022-09-28T20:20:17.156Z,9.20
2022-09-28T20:22:47.627Z,9.10
2022-09-28T20:25:18.302Z,9.10
2022-09-28T20:27:48.838Z,9.10
2022-09-28T20:30:19.311Z,9.00
2022-09-28T20:32:52.229Z,9.10
2022-09-28T20:35:32.810Z,9.10
2022-09-28T20:38:09.271Z,9.10
2022-09-28T20:40:40.390Z,9.00
2022-09-28T20:43:10.720Z,9.00
2022-09-28T20:45:40.912Z,9.00
2022-09-28T20:48:13.704Z,9.00
2022-09-28T20:50:44.244Z,8.90
2022-09-28T20:53:14.397Z,8.90
2022-09-28T20:55:44.647Z,8.80
2022-09-28T20:58:14.791Z,8.80
2022-09-28T21:00:45.039Z,8.70
2022-09-28T21:03:18.160Z,8.60
2022-09-28T21:05:48.379Z,8.60
2022-09-28T21:08:18.469Z,8.60
2022-09-28T21:10:48.836Z,8.60
2022-09-28T21:13:18.944Z,8.60
2022-09-28T21:15:49.240Z,8.70
2022-09-28T21:18:23.179Z,8.60
2022-09-28T21:20:54.845Z,8.60
2022-09-28T21:23:25.266Z,8.60
2022-09-28T21:26:05.530Z,8.60
2022-09-28T21:28:36.699Z,8.60
2022-09-28T21:31:09.416Z,8.60
2022-09-28T21:33:42.182Z,8.60
2022-09-28T21:36:13.326Z,8.50
2022-09-28T21:38:43.539Z,8.50
2022-09-28T21:41:13.815Z,8.50
2022-09-28T21:43:43.914Z,8.50
2022-09-28T21:46:14.301Z,8.50
2022-09-28T21:48:47.298Z,8.50
2022-09-28T21:51:20.253Z,8.50
2022-09-28T21:53:51.297Z,8.60
2022-09-28T21:56:23.209Z,8.60
2022-09-28T21:58:53.751Z,8.60
2022-09-28T22:01:26.832Z,8.60
2022-09-28T22:04:00.923Z,8.50
2022-09-28T22:06:31.466Z,8.50
2022-09-28T22:09:01.622Z,8.50
2022-09-28T22:11:32.069Z,8.60
2022-09-28T22:14:03.155Z,8.60
2022-09-28T22:16:34.513Z,8.60
2022-09-28T22:19:07.135Z,8.60
2022-09-28T22:21:37.517Z,8.60
2022-09-28T22:24:09.823Z,8.60
2022-09-28T22:26:41.136Z,8.60
2022-09-28T22:29:13.009Z,8.60
2022-09-28T22:31:44.304Z,8.60
2022-09-28T22:34:17.242Z,8.50
2022-09-28T22:36:47.537Z,8.50
2022-09-28T22:39:17.769Z,8.50
2022-09-28T22:41:48.186Z,8.60
2022-09-28T22:44:19.189Z,8.60
2022-09-28T22:46:49.929Z,8.60
2022-09-28T22:49:22.946Z,8.60
2022-09-28T22:51:53.583Z,8.70
2022-09-28T22:54:23.923Z,8.70
2022-09-28T22:56:54.048Z,8.70
2022-09-28T22:59:24.513Z,8.70
2022-09-28T23:01:54.718Z,8.70
2022-09-28T23:04:27.544Z,8.70
2022-09-28T23:06:57.664Z,8.70
2022-09-28T23:09:27.878Z,8.70
2022-09-28T23:11:57.940Z,8.60
2022-09-28T23:14:28.166Z,8.70
2022-09-28T23:16:58.251Z,8.70
2022-09-28T23:19:30.924Z,8.70
2022-09-28T23:22:01.389Z,8.70
2022-09-28T23:24:31.541Z,8.70
2022-09-28T23:27:01.715Z,8.70
2022-09-28T23:29:31.877Z,8.60
2022-09-28T23:32:02.403Z,8.60
2022-09-28T23:34:35.124Z,8.60
2022-09-28T23:37:05.341Z,8.60
2022-09-28T23:39:35.587Z,8.60
2022-09-28T23:42:05.929Z,8.50
2022-09-28T23:44:36.630Z,8.50
2022-09-28T23:47:06.861Z,8.40
2022-09-28T23:49:39.637Z,8.40
2022-09-28T23:52:09.912Z,8.40
2022-09-28T23:54:40.322Z,8.40
2022-09-28T23:57:10.422Z,8.30
2022-09-28T23:59:40.651Z,8.30
